Time;durP1;ratioP1;P1;durP2;ratioP2;P2;SDS_P1;SDS_P2;PMS_P1;PMS_P2;Temp;Humidity;BMP_temperature;BMP_pressure;BME280_temperature;BME280_humidity;BME280_pressure;Samples;Min_cycle;Max_cycle;Signal;HPM_P1;HPM_P2
2024/04/17 00:01:59;;;;;;;1.77;0.90;;;;;;;;;;1924706;74;21081;-47
2024/04/17 00:04:28;;;;;;;1.35;1.00;;;;;;;;;;1924735;74;21082;-46
2024/04/17 00:06:56;;;;;;;2.08;1.00;;;;;;;;;;1924754;74;21023;-47
2024/04/17 00:09:25;;;;;;;1.47;0.93;;;;;;;;;;1924787;74;21019;-47
2024/04/17 00:11:53;;;;;;;1.30;0.88;;;;;;;;;;1924688;74;21023;-47
2024/04/17 00:14:22;;;;;;;2.20;0.88;;;;;;;;;;1924693;74;20979;-47
2024/04/17 00:16:51;;;;;;;1.00;0.60;;;;;;;;;;1924757;74;21026;-47
2024/04/17 00:19:19;;;;;;;2.17;0.70;;;;;;;;;;1924762;74;21034;-47
2024/04/17 00:21:48;;;;;;;1.17;0.80;;;;;;;;;;1924791;74;21003;-46
2024/04/17 00:24:17;;;;;;;5.72;0.95;;;;;;;;;;1918560;74;21036;-46
2024/04/17 00:26:45;;;;;;;3.37;0.90;;;;;;;;;;1905355;75;21035;-47
2024/04/17 00:29:14;;;;;;;1.30;0.80;;;;;;;;;;1905273;75;21105;-47
2024/04/17 00:31:43;;;;;;;2.70;0.85;;;;;;;;;;1905329;75;21105;-47
2024/04/17 00:34:11;;;;;;;2.52;1.00;;;;;;;;;;1905434;75;21089;-46
2024/04/17 00:36:39;;;;;;;2.25;0.90;;;;;;;;;;1905458;75;21059;-47
2024/04/17 00:39:08;;;;;;;2.10;0.80;;;;;;;;;;1905357;75;21011;-47
2024/04/17 00:41:37;;;;;;;1.65;0.80;;;;;;;;;;1905309;75;21109;-47
2024/04/17 00:44:05;;;;;;;5.17;1.55;;;;;;;;;;1905324;75;21028;-47
2024/04/17 00:46:37;;;;;;;2.70;0.98;;;;;;;;;;1905439;75;21003;-47
2024/04/17 00:49:04;;;;;;;1.90;1.10;;;;;;;;;;1905254;75;21529;-47
2024/04/17 00:51:34;;;;;;;2.47;0.90;;;;;;;;;;1905259;75;21031;-47
2024/04/17 00:54:03;;;;;;;1.52;1.00;;;;;;;;;;1905281;75;21093;-47
2024/04/17 00:56:33;;;;;;;4.80;0.88;;;;;;;;;;1905358;75;21498;-47
2024/04/17 00:59:02;;;;;;;4.10;0.90;;;;;;;;;;1905324;75;21039;-48
2024/04/17 01:01:30;;;;;;;4.25;1.20;;;;;;;;;;1905367;75;21085;-47
2024/04/17 01:03:59;;;;;;;7.03;1.30;;;;;;;;;;1905324;75;21090;-47
2024/04/17 01:06:28;;;;;;;1.75;1.10;;;;;;;;;;1905347;75;21020;-47
2024/04/17 01:08:56;;;;;;;2.15;1.17;;;;;;;;;;1905294;75;21019;-47
2024/04/17 01:11:25;;;;;;;1.60;0.95;;;;;;;;;;1905232;75;21525;-47
2024/04/17 01:13:53;;;;;;;1.60;1.02;;;;;;;;;;1905284;75;21035;-47
2024/04/17 01:16:22;;;;;;;2.15;1.02;;;;;;;;;;1905321;75;21047;-47
2024/04/17 01:18:50;;;;;;;2.08;1.10;;;;;;;;;;1905282;75;21094;-47
2024/04/17 01:21:19;;;;;;;3.75;0.90;;;;;;;;;;1905320;75;21289;-47
2024/04/17 01:23:48;;;;;;;2.33;0.88;;;;;;;;;;1905282;75;21036;-47
2024/04/17 01:26:18;;;;;;;2.10;0.95;;;;;;;;;;1905327;74;21047;-50
2024/04/17 01:28:46;;;;;;;1.65;0.80;;;;;;;;;;1905383;75;21044;-48
2024/04/17 01:31:15;;;;;;;1.15;0.70;;;;;;;;;;1905221;75;21020;-48
2024/04/17 01:33:43;;;;;;;0.85;0.72;;;;;;;;;;1905262;75;21031;-51
2024/04/17 01:36:12;;;;;;;1.42;0.75;;;;;;;;;;1905324;75;21027;-50
2024/04/17 01:38:41;;;;;;;2.58;0.80;;;;;;;;;;1905411;75;21141;-49
2024/04/17 01:41:09;;;;;;;0.98;0.40;;;;;;;;;;1905433;75;21055;-47
2024/04/17 01:43:37;;;;;;;1.45;0.60;;;;;;;;;;1905211;75;21039;-47
2024/04/17 01:46:06;;;;;;;0.88;0.62;;;;;;;;;;1905167;75;21007;-47
2024/04/17 01:48:34;;;;;;;2.08;0.60;;;;;;;;;;1905284;75;20991;-47
2024/04/17 01:51:03;;;;;;;4.12;0.80;;;;;;;;;;1905304;75;21077;-47
2024/04/17 01:53:31;;;;;;;2.72;0.60;;;;;;;;;;1905155;75;20995;-47
2024/04/17 01:55:59;;;;;;;2.35;0.80;;;;;;;;;;1905218;75;21035;-46
2024/04/17 01:58:28;;;;;;;0.98;0.65;;;;;;;;;;1905237;75;21105;-47
2024/04/17 02:00:56;;;;;;;3.75;1.17;;;;;;;;;;1905349;74;21043;-47
2024/04/17 02:03:25;;;;;;;1.10;0.68;;;;;;;;;;1905388;75;21027;-47
2024/04/17 02:05:53;;;;;;;2.17;0.80;;;;;;;;;;1905398;75;21093;-47
2024/04/17 02:08:22;;;;;;;1.77;0.60;;;;;;;;;;1905356;75;21067;-47
2024/04/17 02:10:50;;;;;;;0.78;0.72;;;;;;;;;;1905396;75;21031;-47
2024/04/17 02:13:19;;;;;;;1.57;0.80;;;;;;;;;;1905307;75;21007;-47
2024/04/17 02:15:47;;;;;;;1.07;0.60;;;;;;;;;;1905418;75;21095;-47
2024/04/17 02:18:16;;;;;;;1.12;0.60;;;;;;;;;;1905371;75;21109;-47
2024/04/17 02:20:44;;;;;;;2.75;0.80;;;;;;;;;;1905507;75;20992;-47
2024/04/17 02:23:13;;;;;;;2.67;1.02;;;;;;;;;;1905490;75;21007;-47
2024/04/17 02:25:41;;;;;;;2.92;0.85;;;;;;;;;;1914359;74;21058;-47
2024/04/17 02:28:10;;;;;;;0.50;0.50;;;;;;;;;;1924772;74;21034;-47
2024/04/17 02:30:39;;;;;;;1.45;0.53;;;;;;;;;;1924837;74;21096;-47
2024/04/17 02:33:08;;;;;;;1.30;0.80;;;;;;;;;;1924737;74;21054;-47
2024/04/17 02:35:37;;;;;;;1.72;0.75;;;;;;;;;;1924804;74;21003;-47
2024/04/17 02:38:05;;;;;;;2.15;1.25;;;;;;;;;;1924754;74;21007;-47
2024/04/17 02:40:33;;;;;;;2.22;1.45;;;;;;;;;;1924835;74;20991;-47
2024/04/17 02:43:02;;;;;;;3.30;1.50;;;;;;;;;;1924867;74;21010;-47
2024/04/17 02:45:30;;;;;;;2.08;1.50;;;;;;;;;;1924805;74;21135;-47
2024/04/17 02:48:00;;;;;;;1.80;1.00;;;;;;;;;;1924768;74;21030;-47
2024/04/17 02:50:28;;;;;;;1.87;1.05;;;;;;;;;;1924771;74;20979;-47
2024/04/17 02:52:57;;;;;;;1.47;0.80;;;;;;;;;;1924689;74;21096;-47
2024/04/17 02:55:26;;;;;;;0.90;0.65;;;;;;;;;;1924796;74;21086;-47
2024/04/17 02:57:54;;;;;;;1.07;0.65;;;;;;;;;;1924771;74;21225;-47
2024/04/17 03:00:23;;;;;;;3.08;0.70;;;;;;;;;;1924901;74;21030;-46
2024/04/17 03:02:52;;;;;;;0.98;0.88;;;;;;;;;;1924761;74;21030;-47
2024/04/17 03:05:20;;;;;;;1.60;0.90;;;;;;;;;;1924729;74;21148;-47
2024/04/17 03:07:48;;;;;;;2.45;1.55;;;;;;;;;;1924761;74;21101;-46
2024/04/17 03:10:17;;;;;;;2.12;0.90;;;;;;;;;;1924775;74;20987;-47
2024/04/17 03:12:45;;;;;;;7.60;0.68;;;;;;;;;;1924821;74;20987;-47
2024/04/17 03:15:14;;;;;;;2.42;0.68;;;;;;;;;;1924809;74;21108;-46
2024/04/17 03:17:43;;;;;;;1.12;0.68;;;;;;;;;;1924880;74;21100;-47
2024/04/17 03:20:11;;;;;;;2.08;1.17;;;;;;;;;;1924891;74;21030;-47
2024/04/17 03:22:40;;;;;;;1.07;0.70;;;;;;;;;;1924778;74;20999;-47
2024/04/17 03:25:09;;;;;;;4.70;1.12;;;;;;;;;;1924358;74;21061;-47
2024/04/17 03:27:37;;;;;;;2.67;0.72;;;;;;;;;;1905490;75;21008;-46
2024/04/17 03:30:06;;;;;;;3.95;0.98;;;;;;;;;;1905361;75;21109;-47
2024/04/17 03:32:35;;;;;;;1.95;1.35;;;;;;;;;;1905264;75;21533;-47
2024/04/17 03:35:04;;;;;;;2.42;0.93;;;;;;;;;;1905343;74;21003;-47
2024/04/17 03:37:32;;;;;;;10.00;1.00;;;;;;;;;;1905318;75;21172;-47
2024/04/17 03:40:04;;;;;;;2.22;1.07;;;;;;;;;;1905367;75;21075;-46
2024/04/17 03:42:31;;;;;;;3.15;0.80;;;;;;;;;;1905222;74;21524;-45
2024/04/17 03:45:00;;;;;;;3.25;0.70;;;;;;;;;;1905319;75;21109;-47
2024/04/17 03:47:28;;;;;;;1.50;0.70;;;;;;;;;;1905360;75;21032;-47
2024/04/17 03:49:58;;;;;;;3.70;0.80;;;;;;;;;;1905432;74;20975;-46
2024/04/17 03:52:27;;;;;;;3.33;1.00;;;;;;;;;;1905187;74;21089;-47
2024/04/17 03:54:55;;;;;;;2.45;1.25;;;;;;;;;;1905387;75;21088;-47
2024/04/17 03:57:25;;;;;;;3.05;1.10;;;;;;;;;;1905368;75;21007;-47
2024/04/17 03:59:53;;;;;;;5.72;1.17;;;;;;;;;;1905356;75;21122;-47
2024/04/17 04:02:23;;;;;;;1.67;0.80;;;;;;;;;;1905313;75;21031;-47
2024/04/17 04:04:52;;;;;;;1.32;0.80;;;;;;;;;;1905430;75;20984;-47
2024/04/17 04:07:20;;;;;;;9.93;1.05;;;;;;;;;;1905346;75;21075;-47
2024/04/17 04:09:49;;;;;;;4.42;0.80;;;;;;;;;;1905243;75;21125;-47
2024/04/17 04:12:18;;;;;;;1.52;0.70;;;;;;;;;;1905146;75;21011;-47
2024/04/17 04:14:46;;;;;;;1.45;0.78;;;;;;;;;;1905379;75;21027;-48
2024/04/17 04:17:15;;;;;;;1.98;0.93;;;;;;;;;;1905214;75;21169;-47
2024/04/17 04:19:44;;;;;;;1.30;0.90;;;;;;;;;;1905272;75;21031;-47
2024/04/17 04:22:12;;;;;;;3.52;0.80;;;;;;;;;;1905164;75;21030;-47
2024/04/17 04:24:41;;;;;;;1.00;0.90;;;;;;;;;;1905231;75;21047;-47
2024/04/17 04:27:10;;;;;;;2.65;1.40;;;;;;;;;;1905236;74;21051;-48
2024/04/17 04:29:39;;;;;;;2.67;1.20;;;;;;;;;;1905270;75;21016;-48
2024/04/17 04:32:07;;;;;;;5.78;0.90;;;;;;;;;;1905273;75;21093;-47
2024/04/17 04:34:36;;;;;;;9.08;1.12;;;;;;;;;;1905209;75;21024;-47
2024/04/17 04:37:04;;;;;;;1.22;0.78;;;;;;;;;;1905168;75;21097;-48
2024/04/17 04:39:33;;;;;;;2.35;0.93;;;;;;;;;;1905205;75;20992;-48
2024/04/17 04:42:03;;;;;;;4.85;1.30;;;;;;;;;;1905190;75;21043;-47
2024/04/17 04:44:32;;;;;;;5.10;1.30;;;;;;;;;;1905341;75;21071;-47
2024/04/17 04:47:01;;;;;;;4.58;1.27;;;;;;;;;;1905204;75;21039;-47
2024/04/17 04:49:29;;;;;;;3.83;0.95;;;;;;;;;;1905269;75;21003;-47
2024/04/17 04:51:58;;;;;;;3.72;1.20;;;;;;;;;;1905290;75;21090;-47
2024/04/17 04:54:27;;;;;;;3.80;1.60;;;;;;;;;;1905173;75;21011;-47
2024/04/17 04:56:55;;;;;;;4.17;1.17;;;;;;;;;;1905200;75;21004;-47
2024/04/17 04:59:24;;;;;;;3.75;1.02;;;;;;;;;;1905213;75;21031;-47
2024/04/17 05:01:52;;;;;;;5.95;1.95;;;;;;;;;;1905113;75;21097;-47
2024/04/17 05:04:21;;;;;;;1.77;1.20;;;;;;;;;;1905206;75;21055;-48
2024/04/17 05:06:50;;;;;;;4.10;1.15;;;;;;;;;;1905205;75;21027;-49
2024/04/17 05:09:18;;;;;;;2.50;1.10;;;;;;;;;;1905214;75;21019;-50
2024/04/17 05:11:47;;;;;;;1.80;1.05;;;;;;;;;;1905256;75;21031;-49
2024/04/17 05:14:15;;;;;;;12.60;4.33;;;;;;;;;;1905231;75;21450;-49
2024/04/17 05:16:44;;;;;;;3.77;1.32;;;;;;;;;;1905215;75;21024;-48
2024/04/17 05:19:12;;;;;;;3.67;1.55;;;;;;;;;;1905148;75;21105;-47
2024/04/17 05:21:41;;;;;;;3.40;1.47;;;;;;;;;;1905092;75;21125;-48
2024/04/17 05:24:10;;;;;;;5.85;1.67;;;;;;;;;;1905112;75;21036;-48
2024/04/17 05:26:38;;;;;;;2.55;1.57;;;;;;;;;;1905122;75;21047;-48
2024/04/17 05:29:06;;;;;;;7.05;1.90;;;;;;;;;;1905072;75;21019;-48
2024/04/17 05:31:35;;;;;;;5.37;2.08;;;;;;;;;;1905043;75;20990;-47
2024/04/17 05:34:03;;;;;;;8.13;2.30;;;;;;;;;;1905104;75;21110;-47
2024/04/17 05:36:32;;;;;;;5.55;1.95;;;;;;;;;;1905225;75;21104;-48
2024/04/17 05:39:01;;;;;;;3.37;1.75;;;;;;;;;;1905402;75;21140;-48
2024/04/17 05:41:30;;;;;;;6.60;1.77;;;;;;;;;;1905367;75;21089;-49
2024/04/17 05:43:58;;;;;;;16.10;3.05;;;;;;;;;;1905193;75;21098;-47
2024/04/17 05:46:27;;;;;;;9.00;2.00;;;;;;;;;;1905188;75;21043;-48
2024/04/17 05:48:56;;;;;;;5.58;1.98;;;;;;;;;;1905263;75;21055;-47
2024/04/17 05:51:25;;;;;;;5.17;1.95;;;;;;;;;;1905216;75;21090;-47
2024/04/17 05:53:54;;;;;;;3.58;1.60;;;;;;;;;;1905245;75;21101;-47
2024/04/17 05:56:23;;;;;;;4.92;1.65;;;;;;;;;;1905230;75;21032;-47
2024/04/17 05:58:51;;;;;;;6.33;2.05;;;;;;;;;;1905350;75;21066;-47
2024/04/17 06:01:20;;;;;;;6.60;1.70;;;;;;;;;;1905249;75;21149;-48
2024/04/17 06:03:48;;;;;;;4.55;1.62;;;;;;;;;;1905387;75;20980;-47
2024/04/17 06:06:17;;;;;;;7.03;1.82;;;;;;;;;;1905232;75;21031;-47
2024/04/17 06:08:47;;;;;;;6.37;2.30;;;;;;;;;;1905400;75;21085;-47
2024/04/17 06:11:16;;;;;;;12.23;6.75;;;;;;;;;;1905258;75;21007;-47
2024/04/17 06:13:45;;;;;;;5.70;1.90;;;;;;;;;;1905227;75;21079;-47
2024/04/17 06:16:13;;;;;;;8.10;2.05;;;;;;;;;;1905257;75;21079;-47
2024/04/17 06:18:42;;;;;;;4.55;1.70;;;;;;;;;;1905279;75;21098;-48
2024/04/17 06:21:12;;;;;;;9.83;2.75;;;;;;;;;;1905208;75;21012;-47
2024/04/17 06:23:40;;;;;;;2.87;1.70;;;;;;;;;;1905269;75;21120;-47
2024/04/17 06:26:09;;;;;;;7.40;2.35;;;;;;;;;;1905240;75;21096;-48
2024/04/17 06:28:37;;;;;;;5.33;1.77;;;;;;;;;;1921268;74;21023;-48
2024/04/17 06:31:06;;;;;;;3.10;1.47;;;;;;;;;;1924587;74;21096;-47
2024/04/17 06:33:35;;;;;;;4.60;1.22;;;;;;;;;;1924634;74;21065;-47
2024/04/17 06:36:03;;;;;;;8.60;1.82;;;;;;;;;;1924702;74;21006;-47
2024/04/17 06:38:32;;;;;;;8.03;1.72;;;;;;;;;;1924610;74;21031;-47
2024/04/17 06:41:01;;;;;;;19.37;2.58;;;;;;;;;;1924595;74;21014;-47
2024/04/17 06:43:29;;;;;;;11.80;1.50;;;;;;;;;;1924608;74;21108;-48
2024/04/17 06:45:58;;;;;;;12.85;2.90;;;;;;;;;;1924561;74;21096;-46
2024/04/17 06:48:27;;;;;;;4.47;1.55;;;;;;;;;;1924539;74;21023;-47
2024/04/17 06:50:56;;;;;;;3.33;1.50;;;;;;;;;;1924601;74;21043;-48
2024/04/17 06:53:25;;;;;;;8.13;1.90;;;;;;;;;;1924584;74;21152;-48
2024/04/17 06:55:53;;;;;;;3.12;1.60;;;;;;;;;;1924504;74;21027;-47
2024/04/17 06:58:22;;;;;;;4.60;1.90;;;;;;;;;;1924792;74;21606;-47
2024/04/17 07:00:51;;;;;;;15.03;2.75;;;;;;;;;;1924696;74;21100;-48
2024/04/17 07:03:20;;;;;;;5.80;1.75;;;;;;;;;;1924777;74;21030;-47
2024/04/17 07:05:48;;;;;;;15.15;2.15;;;;;;;;;;1924737;74;21027;-48
2024/04/17 07:08:16;;;;;;;6.72;1.70;;;;;;;;;;1924637;74;21002;-47
2024/04/17 07:10:45;;;;;;;11.18;1.92;;;;;;;;;;1924775;74;21027;-47
2024/04/17 07:13:14;;;;;;;6.05;1.60;;;;;;;;;;1924850;74;21080;-47
2024/04/17 07:15:43;;;;;;;5.33;1.92;;;;;;;;;;1924614;74;21043;-47
2024/04/17 07:18:11;;;;;;;12.63;1.87;;;;;;;;;;1924631;74;21082;-48
2024/04/17 07:20:42;;;;;;;30.88;3.33;;;;;;;;;;1924572;74;20994;-49
2024/04/17 07:23:10;;;;;;;16.62;3.50;;;;;;;;;;1924538;74;21164;-48
2024/04/17 07:25:38;;;;;;;73.90;7.62;;;;;;;;;;1923069;74;21012;-49
2024/04/17 07:28:07;;;;;;;10.08;1.90;;;;;;;;;;1916113;74;21168;-48
2024/04/17 07:30:42;;;;;;;11.90;2.47;;;;;;;;;;1904786;75;21023;-48
2024/04/17 07:33:10;;;;;;;;;;;;;;;;;;1907444;75;21047;-48
2024/04/17 07:35:41;;;;;;;17.23;2.62;;;;;;;;;;1904796;75;20375;-47
2024/04/17 07:38:10;;;;;;;7.55;1.67;;;;;;;;;;1904580;75;21079;-47
2024/04/17 07:40:38;;;;;;;11.43;1.92;;;;;;;;;;1904562;75;21012;-48
2024/04/17 07:43:07;;;;;;;11.30;2.22;;;;;;;;;;1904608;75;21142;-48
2024/04/17 07:45:36;;;;;;;9.45;1.90;;;;;;;;;;1904659;75;21011;-48
2024/04/17 07:48:05;;;;;;;7.78;1.70;;;;;;;;;;1904580;75;21109;-47
2024/04/17 07:50:33;;;;;;;16.25;2.47;;;;;;;;;;1904062;75;21027;-49
2024/04/17 07:53:02;;;;;;;11.20;2.05;;;;;;;;;;1884728;74;21143;-46
2024/04/17 07:55:32;;;;;;;5.72;1.70;;;;;;;;;;1887060;74;21341;-47
2024/04/17 07:58:00;;;;;;;2.50;1.62;;;;;;;;;;1887264;74;21003;-46
2024/04/17 08:00:29;;;;;;;6.65;1.75;;;;;;;;;;1894530;74;21279;-48
2024/04/17 08:02:58;;;;;;;10.05;1.90;;;;;;;;;;1885563;74;21028;-48
2024/04/17 08:05:26;;;;;;;7.60;2.10;;;;;;;;;;1886726;75;21187;-48
2024/04/17 08:07:55;;;;;;;4.47;2.90;;;;;;;;;;1889311;75;21023;-47
2024/04/17 08:10:23;;;;;;;9.55;2.00;;;;;;;;;;1886559;74;21011;-50
2024/04/17 08:13:07;;;;;;;3.72;1.70;;;;;;;;;;1886479;75;21078;-48
2024/04/17 08:15:25;;;;;;;4.17;1.30;;;;;;;;;;1890423;74;21547;-47
2024/04/17 08:17:53;;;;;;;7.17;2.50;;;;;;;;;;1886473;75;21004;-48
2024/04/17 08:20:22;;;;;;;4.35;1.70;;;;;;;;;;1887805;75;21054;-49
2024/04/17 08:22:50;;;;;;;2.67;1.50;;;;;;;;;;1887799;74;21007;-48
2024/04/17 08:25:19;;;;;;;3.20;1.55;;;;;;;;;;1887523;75;21082;-52
2024/04/17 08:27:48;;;;;;;3.33;1.55;;;;;;;;;;1886410;75;21040;-48
2024/04/17 08:30:17;;;;;;;9.13;1.95;;;;;;;;;;1888933;75;21059;-48
2024/04/17 08:32:46;;;;;;;4.67;1.92;;;;;;;;;;1888841;75;21109;-51
2024/04/17 08:35:14;;;;;;;6.95;1.60;;;;;;;;;;1889851;75;21066;-53
2024/04/17 08:37:43;;;;;;;2.67;1.40;;;;;;;;;;1890039;75;21141;-50
2024/04/17 08:40:13;;;;;;;6.33;2.47;;;;;;;;;;1871870;77;21140;-52
2024/04/17 08:42:42;;;;;;;2.58;1.50;;;;;;;;;;1883527;75;21060;-52
2024/04/17 08:45:12;;;;;;;3.33;1.75;;;;;;;;;;1889428;74;21027;-49
2024/04/17 08:47:41;;;;;;;5.00;1.60;;;;;;;;;;1889523;75;21004;-51
2024/04/17 08:50:10;;;;;;;3.30;1.52;;;;;;;;;;1888927;75;21023;-51
2024/04/17 08:52:40;;;;;;;4.65;1.40;;;;;;;;;;1900253;75;21077;-51
2024/04/17 08:55:10;;;;;;;2.47;1.52;;;;;;;;;;1890437;75;21091;-52
2024/04/17 08:57:39;;;;;;;4.03;1.42;;;;;;;;;;1887423;75;21063;-49
2024/04/17 09:00:08;;;;;;;3.58;1.40;;;;;;;;;;1882176;75;21689;-48
2024/04/17 09:02:38;;;;;;;2.60;1.60;;;;;;;;;;1875250;75;21070;-49
2024/04/17 09:05:07;;;;;;;5.90;1.95;;;;;;;;;;1871973;77;21062;-49
2024/04/17 09:07:37;;;;;;;2.70;1.45;;;;;;;;;;1882113;75;21643;-48
2024/04/17 09:10:06;;;;;;;2.42;1.47;;;;;;;;;;1874196;75;21205;-51
2024/04/17 09:12:34;;;;;;;5.28;2.22;;;;;;;;;;1890092;75;21036;-48
2024/04/17 09:15:05;;;;;;;3.98;1.70;;;;;;;;;;1904305;75;21392;-53
2024/04/17 09:17:33;;;;;;;2.30;1.40;;;;;;;;;;1903133;75;21533;-54
2024/04/17 09:20:02;;;;;;;3.92;1.70;;;;;;;;;;1890839;75;21087;-52
2024/04/17 09:22:31;;;;;;;4.92;2.42;;;;;;;;;;1904726;74;20999;-52
2024/04/17 09:24:59;;;;;;;3.40;1.50;;;;;;;;;;1881664;74;21047;-55
2024/04/17 09:27:28;;;;;;;3.98;1.60;;;;;;;;;;1886130;75;21111;-55
2024/04/17 09:29:57;;;;;;;4.22;2.05;;;;;;;;;;1895299;74;21172;-53
2024/04/17 09:32:26;;;;;;;6.00;1.70;;;;;;;;;;1907311;74;21133;-53
2024/04/17 09:34:55;;;;;;;4.20;1.80;;;;;;;;;;1919856;74;21159;-53
2024/04/17 09:37:25;;;;;;;3.45;1.70;;;;;;;;;;1907216;74;21016;-51
2024/04/17 09:40:04;;;;;;;3.08;1.30;;;;;;;;;;1906233;74;21501;-53
2024/04/17 09:42:34;;;;;;;4.95;1.32;;;;;;;;;;1901027;74;21091;-51
2024/04/17 09:45:03;;;;;;;2.98;1.70;;;;;;;;;;1903112;74;21308;-50
2024/04/17 09:47:32;;;;;;;3.30;1.60;;;;;;;;;;1913597;74;21019;-50
2024/04/17 09:50:03;;;;;;;7.42;1.52;;;;;;;;;;1902660;73;21101;-51
2024/04/17 09:52:33;;;;;;;3.25;1.60;;;;;;;;;;1901420;73;21139;-53
2024/04/17 09:55:01;;;;;;;2.90;1.57;;;;;;;;;;1908619;74;21069;-50
2024/04/17 09:57:31;;;;;;;4.75;1.42;;;;;;;;;;1907213;74;21038;-52
2024/04/17 10:00:00;;;;;;;4.47;1.70;;;;;;;;;;1905221;74;21117;-51
2024/04/17 10:02:29;;;;;;;2.27;1.55;;;;;;;;;;1906616;74;21025;-51
2024/04/17 10:04:58;;;;;;;3.15;1.70;;;;;;;;;;1907767;74;21179;-49
2024/04/17 10:07:27;;;;;;;8.33;4.83;;;;;;;;;;1905313;74;21030;-49
2024/04/17 10:09:57;;;;;;;4.37;2.42;;;;;;;;;;1903157;74;21075;-48
2024/04/17 10:12:27;;;;;;;3.87;1.62;;;;;;;;;;1912548;74;21057;-49
2024/04/17 10:14:56;;;;;;;5.42;1.70;;;;;;;;;;1896686;74;21156;-51
2024/04/17 10:17:25;;;;;;;2.50;1.20;;;;;;;;;;1883845;75;21105;-49
2024/04/17 10:19:55;;;;;;;3.72;1.50;;;;;;;;;;1901685;74;21022;-51
2024/04/17 10:22:25;;;;;;;6.87;1.90;;;;;;;;;;1888439;74;21092;-48
2024/04/17 10:24:55;;;;;;;10.60;4.00;;;;;;;;;;1896428;74;21081;-49
2024/04/17 10:27:26;;;;;;;5.78;1.67;;;;;;;;;;1891595;74;21163;-48
2024/04/17 10:29:54;;;;;;;3.58;1.87;;;;;;;;;;1887777;75;21055;-50
2024/04/17 10:32:23;;;;;;;3.62;1.47;;;;;;;;;;1900856;75;21083;-50
2024/04/17 10:34:52;;;;;;;1.65;1.25;;;;;;;;;;1887325;75;21039;-48
2024/04/17 10:37:22;;;;;;;15.03;13.53;;;;;;;;;;1883410;75;21180;-50
2024/04/17 10:39:51;;;;;;;3.12;1.90;;;;;;;;;;1891348;75;21497;-48
2024/04/17 10:42:20;;;;;;;4.20;1.75;;;;;;;;;;1883225;75;21051;-48
2024/04/17 10:44:52;;;;;;;5.40;1.75;;;;;;;;;;1874495;75;21023;-50
2024/04/17 10:47:22;;;;;;;6.62;2.10;;;;;;;;;;1904621;75;21062;-55
2024/04/17 10:49:56;;;;;;;4.45;1.25;;;;;;;;;;1903317;74;21094;-54
2024/04/17 10:52:25;;;;;;;3.25;1.65;;;;;;;;;;1896009;75;21039;-54
2024/04/17 10:54:57;;;;;;;4.65;1.87;;;;;;;;;;1888199;75;21105;-53
2024/04/17 10:57:27;;;;;;;2.70;1.25;;;;;;;;;;1889980;75;21067;-55
2024/04/17 10:59:56;;;;;;;4.78;1.45;;;;;;;;;;1888634;75;21046;-53
2024/04/17 11:02:24;;;;;;;3.35;2.12;;;;;;;;;;1886600;75;21085;-53
2024/04/17 11:04:53;;;;;;;3.85;1.52;;;;;;;;;;1888494;75;21068;-55
2024/04/17 11:07:21;;;;;;;4.83;1.65;;;;;;;;;;1889901;75;21113;-54
2024/04/17 11:09:50;;;;;;;1.55;1.20;;;;;;;;;;1887464;75;21039;-54
2024/04/17 11:12:20;;;;;;;3.95;1.90;;;;;;;;;;1887196;75;21161;-53
2024/04/17 11:14:48;;;;;;;1.98;1.30;;;;;;;;;;1886814;75;21015;-55
2024/04/17 11:17:17;;;;;;;3.77;1.67;;;;;;;;;;1887821;75;21059;-54
2024/04/17 11:19:46;;;;;;;4.65;1.70;;;;;;;;;;1871964;77;21137;-53
2024/04/17 11:22:14;;;;;;;9.60;1.55;;;;;;;;;;1871359;76;21110;-54
2024/04/17 11:24:47;;;;;;;4.00;1.42;;;;;;;;;;1871889;76;21070;-54
2024/04/17 11:27:17;;;;;;;6.10;1.70;;;;;;;;;;1872747;77;21019;-53
2024/04/17 11:29:47;;;;;;;2.65;1.70;;;;;;;;;;1877560;74;21520;-55
2024/04/17 11:32:16;;;;;;;3.10;1.70;;;;;;;;;;1890638;75;21046;-53
2024/04/17 11:34:45;;;;;;;3.17;1.60;;;;;;;;;;1891577;75;21026;-54
2024/04/17 11:37:14;;;;;;;3.90;1.77;;;;;;;;;;1900610;74;21061;-53
2024/04/17 11:39:42;;;;;;;3.47;1.70;;;;;;;;;;1909452;74;21016;-54
2024/04/17 11:42:11;;;;;;;8.33;1.80;;;;;;;;;;1906838;74;21107;-54
2024/04/17 11:44:40;;;;;;;5.90;2.33;;;;;;;;;;1906771;74;21092;-53
2024/04/17 11:47:10;;;;;;;5.10;1.92;;;;;;;;;;1906351;74;21109;-54
2024/04/17 11:49:39;;;;;;;2.15;1.80;;;;;;;;;;1907093;74;21002;-53
2024/04/17 11:52:11;;;;;;;3.85;1.60;;;;;;;;;;1909525;74;21027;-54
2024/04/17 11:54:39;;;;;;;3.30;1.50;;;;;;;;;;1908733;74;20997;-55
2024/04/17 11:57:08;;;;;;;9.83;1.82;;;;;;;;;;1909541;74;21035;-54
2024/04/17 11:59:37;;;;;;;3.08;1.67;;;;;;;;;;1908259;74;21011;-53
2024/04/17 12:02:06;;;;;;;1.80;1.60;;;;;;;;;;1906182;74;21024;-54
2024/04/17 12:04:34;;;;;;;3.58;1.92;;;;;;;;;;1908162;74;21027;-54
2024/04/17 12:07:03;;;;;;;4.28;1.42;;;;;;;;;;1909415;74;21052;-54
2024/04/17 12:09:31;;;;;;;15.28;2.30;;;;;;;;;;1906848;74;21091;-53
2024/04/17 12:12:00;;;;;;;5.92;2.42;;;;;;;;;;1906833;74;21011;-54
2024/04/17 12:14:29;;;;;;;8.20;2.05;;;;;;;;;;1909440;74;21092;-49
2024/04/17 12:16:58;;;;;;;19.95;3.00;;;;;;;;;;1908157;74;21090;-51
2024/04/17 12:19:26;;;;;;;5.78;2.02;;;;;;;;;;1906106;74;21012;-53
2024/04/17 12:21:55;;;;;;;3.47;1.50;;;;;;;;;;1908025;74;21034;-51
2024/04/17 12:26:49;;;;;;;3.60;1.40;;;;;;;;;;1909627;74;21129;-53
2024/04/17 12:26:54;;;;;;;6.10;1.77;;;;;;;;;;1908475;74;21520;-52
2024/04/17 12:29:23;;;;;;;5.55;1.90;;;;;;;;;;1909520;74;20990;-53
2024/04/17 12:31:51;;;;;;;3.02;1.67;;;;;;;;;;1898784;75;21040;-51
2024/04/17 12:34:20;;;;;;;6.53;1.82;;;;;;;;;;1896374;75;21143;-52
2024/04/17 12:36:49;;;;;;;2.85;1.77;;;;;;;;;;1895648;75;21096;-53
2024/04/17 12:39:17;;;;;;;4.72;2.42;;;;;;;;;;1890091;75;21115;-52
2024/04/17 12:41:46;;;;;;;4.97;2.52;;;;;;;;;;1896582;75;20989;-52
2024/04/17 12:44:15;;;;;;;9.05;2.40;;;;;;;;;;1898275;75;21003;-54
2024/04/17 12:46:44;;;;;;;2.55;1.90;;;;;;;;;;1899900;75;21082;-53
2024/04/17 12:49:13;;;;;;;4.92;2.45;;;;;;;;;;1897810;75;21094;-50
2024/04/17 12:51:41;;;;;;;7.75;2.58;;;;;;;;;;1897020;75;21011;-54
2024/04/17 12:54:09;;;;;;;8.53;2.75;;;;;;;;;;1899439;75;21096;-53
2024/04/17 12:56:38;;;;;;;7.00;4.75;;;;;;;;;;1898920;75;21016;-54
2024/04/17 12:59:09;;;;;;;5.35;2.35;;;;;;;;;;1896607;75;21024;-53
2024/04/17 13:01:37;;;;;;;5.03;2.25;;;;;;;;;;1886652;75;21563;-51
2024/04/17 13:04:07;;;;;;;5.37;1.80;;;;;;;;;;1880929;76;21020;-51
2024/04/17 13:06:36;;;;;;;3.70;1.82;;;;;;;;;;1881263;75;21135;-50
2024/04/17 13:09:05;;;;;;;3.52;1.80;;;;;;;;;;1893357;75;21063;-51
2024/04/17 13:11:38;;;;;;;6.72;2.15;;;;;;;;;;1914385;75;21062;-51
2024/04/17 13:14:04;;;;;;;8.53;2.62;;;;;;;;;;1913456;75;21532;-50
2024/04/17 13:16:33;;;;;;;4.75;2.55;;;;;;;;;;1914287;75;21116;-50
2024/04/17 13:19:01;;;;;;;7.97;2.37;;;;;;;;;;1914404;75;21047;-50
2024/04/17 13:21:29;;;;;;;5.12;2.08;;;;;;;;;;1913700;75;21050;-50
2024/04/17 13:23:58;;;;;;;8.45;3.55;;;;;;;;;;1914704;75;21096;-51
2024/04/17 13:26:27;;;;;;;6.62;2.83;;;;;;;;;;1914629;75;21015;-50
2024/04/17 13:28:55;;;;;;;6.25;2.60;;;;;;;;;;1914673;75;21039;-51
2024/04/17 13:31:25;;;;;;;9.15;2.00;;;;;;;;;;1909483;75;21208;-51
2024/04/17 13:33:53;;;;;;;3.35;1.52;;;;;;;;;;1905180;75;21008;-51
2024/04/17 13:36:22;;;;;;;3.33;1.77;;;;;;;;;;1905160;75;21097;-50
2024/04/17 13:38:52;;;;;;;3.35;2.08;;;;;;;;;;1905205;75;21091;-52
2024/04/17 13:41:20;;;;;;;5.92;2.72;;;;;;;;;;1905104;75;21008;-51
2024/04/17 13:43:49;;;;;;;5.10;2.00;;;;;;;;;;1905194;75;21011;-49
2024/04/17 13:46:17;;;;;;;3.02;1.47;;;;;;;;;;1905144;75;21109;-52
2024/04/17 13:48:46;;;;;;;5.28;2.25;;;;;;;;;;1905542;75;21020;-51
2024/04/17 13:51:15;;;;;;;4.60;1.70;;;;;;;;;;1905175;75;21083;-50
2024/04/17 13:53:50;;;;;;;3.40;1.42;;;;;;;;;;1905221;75;21152;-50
2024/04/17 13:56:15;;;;;;;4.72;1.60;;;;;;;;;;1904928;74;21525;-49
2024/04/17 13:58:43;;;;;;;6.30;1.95;;;;;;;;;;1905341;75;20991;-48
2024/04/17 14:01:12;;;;;;;10.10;2.17;;;;;;;;;;1905257;75;21009;-51
2024/04/17 14:03:41;;;;;;;5.92;2.33;;;;;;;;;;1905334;75;21105;-49
2024/04/17 14:06:10;;;;;;;5.08;2.25;;;;;;;;;;1905288;75;21081;-51
2024/04/17 14:08:38;;;;;;;5.70;2.40;;;;;;;;;;1905300;75;21011;-49
2024/04/17 14:11:07;;;;;;;8.38;2.35;;;;;;;;;;1905269;75;21035;-48
2024/04/17 14:13:36;;;;;;;8.73;2.08;;;;;;;;;;1905287;75;21030;-51
2024/04/17 14:16:08;;;;;;;4.33;2.17;;;;;;;;;;1905243;75;21497;-51
2024/04/17 14:18:37;;;;;;;5.60;1.77;;;;;;;;;;1905252;75;21109;-49
2024/04/17 14:21:08;;;;;;;6.87;2.33;;;;;;;;;;1905218;75;21093;-50
2024/04/17 14:23:37;;;;;;;3.35;1.98;;;;;;;;;;1905165;74;21450;-51
2024/04/17 14:26:06;;;;;;;2.15;1.62;;;;;;;;;;1905207;75;21075;-52
2024/04/17 14:28:36;;;;;;;3.08;2.17;;;;;;;;;;1905304;75;21063;-51
2024/04/17 14:31:05;;;;;;;6.15;2.27;;;;;;;;;;1909121;74;21520;-52
2024/04/17 14:33:34;;;;;;;3.75;2.22;;;;;;;;;;1924779;74;21010;-52
2024/04/17 14:36:06;;;;;;;17.37;2.90;;;;;;;;;;1924738;74;21019;-52
2024/04/17 14:38:38;;;;;;;10.28;3.08;;;;;;;;;;1924807;74;21112;-52
2024/04/17 14:41:10;;;;;;;10.90;3.05;;;;;;;;;;1924603;74;21546;-51
2024/04/17 14:43:39;;;;;;;8.73;2.35;;;;;;;;;;1924613;74;21027;-53
2024/04/17 14:46:07;;;;;;;14.90;3.83;;;;;;;;;;1924669;74;21022;-52
2024/04/17 14:48:36;;;;;;;9.80;2.83;;;;;;;;;;1924748;74;20995;-52
2024/04/17 14:51:05;;;;;;;11.65;2.52;;;;;;;;;;1924574;74;21082;-52
2024/04/17 14:53:34;;;;;;;8.45;2.65;;;;;;;;;;1924643;74;21104;-53